sensor_id;sensor_type;location;lat;lon;timestamp;pressure;altitude;pressure_sealevel;temperature;humidity
62942;BME280;49042;47.318;19.874;2023-06-19T00:02:58;100364.00;;;15.37;100.00
62942;BME280;49042;47.318;19.874;2023-06-19T00:06:00;100361.69;;;15.76;100.00
62942;BME280;49042;47.318;19.874;2023-06-19T00:09:02;100369.53;;;15.73;100.00
62942;BME280;49042;47.318;19.874;2023-06-19T00:12:04;100371.22;;;15.63;100.00
62942;BME280;49042;47.318;19.874;2023-06-19T00:15:07;100377.03;;;15.29;100.00
62942;BME280;49042;47.318;19.874;2023-06-19T00:18:11;100383.19;;;15.31;100.00
62942;BME280;49042;47.318;19.874;2023-06-19T00:21:12;100374.56;;;15.48;100.00
62942;BME280;49042;47.318;19.874;2023-06-19T00:24:14;100379.47;;;15.08;100.00
62942;BME280;49042;47.318;19.874;2023-06-19T00:27:16;100387.31;;;15.07;100.00
62942;BME280;49042;47.318;19.874;2023-06-19T00:30:17;100386.41;;;14.39;100.00
62942;BME280;49042;47.318;19.874;2023-06-19T00:33:19;100391.69;;;14.41;100.00
62942;BME280;49042;47.318;19.874;2023-06-19T00:36:21;100383.41;;;14.12;100.00
62942;BME280;49042;47.318;19.874;2023-06-19T00:39:25;100374.62;;;14.09;100.00
62942;BME280;49042;47.318;19.874;2023-06-19T00:42:27;100369.34;;;14.71;100.00
62942;BME280;49042;47.318;19.874;2023-06-19T00:45:29;100367.59;;;14.06;100.00
62942;BME280;49042;47.318;19.874;2023-06-19T00:48:32;100373.19;;;14.30;100.00
62942;BME280;49042;47.318;19.874;2023-06-19T00:51:34;100377.62;;;14.35;100.00
62942;BME280;49042;47.318;19.874;2023-06-19T00:54:36;100375.44;;;14.70;100.00
62942;BME280;49042;47.318;19.874;2023-06-19T00:57:38;100388.63;;;14.73;100.00
62942;BME280;49042;47.318;19.874;2023-06-19T01:00:41;100388.25;;;14.45;100.00
62942;BME280;49042;47.318;19.874;2023-06-19T01:03:53;100391.81;;;14.50;100.00
62942;BME280;49042;47.318;19.874;2023-06-19T01:07:08;100387.38;;;14.44;100.00
62942;BME280;49042;47.318;19.874;2023-06-19T01:10:17;100392.06;;;14.69;100.00
62942;BME280;49042;47.318;19.874;2023-06-19T01:16:41;100384.31;;;13.60;100.00
62942;BME280;49042;47.318;19.874;2023-06-19T01:19:44;100383.97;;;13.91;100.00
62942;BME280;49042;47.318;19.874;2023-06-19T01:22:46;100380.75;;;14.09;100.00
62942;BME280;49042;47.318;19.874;2023-06-19T01:25:47;100382.94;;;14.42;100.00
62942;BME280;49042;47.318;19.874;2023-06-19T01:28:49;100374.66;;;14.77;100.00
62942;BME280;49042;47.318;19.874;2023-06-19T01:32:04;100374.34;;;14.52;100.00
62942;BME280;49042;47.318;19.874;2023-06-19T01:35:11;100371.72;;;14.52;100.00
62942;BME280;49042;47.318;19.874;2023-06-19T01:38:14;100364.03;;;14.65;100.00
62942;BME280;49042;47.318;19.874;2023-06-19T01:41:17;100371.81;;;14.60;100.00
62942;BME280;49042;47.318;19.874;2023-06-19T01:44:20;100370.38;;;14.84;100.00
62942;BME280;49042;47.318;19.874;2023-06-19T01:47:22;100374.03;;;14.94;100.00
62942;BME280;49042;47.318;19.874;2023-06-19T01:50:24;100367.31;;;14.48;100.00
62942;BME280;49042;47.318;19.874;2023-06-19T01:53:26;100371.00;;;14.64;100.00
62942;BME280;49042;47.318;19.874;2023-06-19T01:56:28;100365.78;;;14.66;100.00
62942;BME280;49042;47.318;19.874;2023-06-19T01:59:30;100369.66;;;14.93;100.00
62942;BME280;49042;47.318;19.874;2023-06-19T02:02:32;100373.19;;;14.97;100.00
62942;BME280;49042;47.318;19.874;2023-06-19T02:05:33;100378.06;;;14.69;100.00
62942;BME280;49042;47.318;19.874;2023-06-19T02:08:40;100377.62;;;14.34;100.00
62942;BME280;49042;47.318;19.874;2023-06-19T02:11:42;100380.50;;;14.56;100.00
62942;BME280;49042;47.318;19.874;2023-06-19T02:14:44;100372.56;;;14.48;100.00
62942;BME280;49042;47.318;19.874;2023-06-19T02:17:45;100375.41;;;13.52;100.00
62942;BME280;49042;47.318;19.874;2023-06-19T02:20:47;100371.78;;;12.98;100.00
62942;BME280;49042;47.318;19.874;2023-06-19T02:23:49;100380.13;;;13.23;100.00
62942;BME280;49042;47.318;19.874;2023-06-19T02:26:51;100385.38;;;13.72;100.00
62942;BME280;49042;47.318;19.874;2023-06-19T02:29:53;100382.13;;;13.35;100.00
62942;BME280;49042;47.318;19.874;2023-06-19T02:32:54;100379.56;;;13.88;100.00
62942;BME280;49042;47.318;19.874;2023-06-19T02:35:56;100385.25;;;13.64;100.00
62942;BME280;49042;47.318;19.874;2023-06-19T02:39:01;100386.09;;;13.14;100.00
62942;BME280;49042;47.318;19.874;2023-06-19T02:42:03;100384.19;;;12.63;100.00
62942;BME280;49042;47.318;19.874;2023-06-19T02:45:06;100398.69;;;12.49;100.00
62942;BME280;49042;47.318;19.874;2023-06-19T02:48:08;100395.19;;;12.48;100.00
62942;BME280;49042;47.318;19.874;2023-06-19T02:51:11;100395.81;;;12.38;100.00
62942;BME280;49042;47.318;19.874;2023-06-19T02:54:13;100393.13;;;12.33;100.00
62942;BME280;49042;47.318;19.874;2023-06-19T02:57:14;100394.31;;;12.90;100.00
62942;BME280;49042;47.318;19.874;2023-06-19T03:00:16;100393.72;;;13.03;100.00
62942;BME280;49042;47.318;19.874;2023-06-19T03:03:18;100397.78;;;12.89;100.00
62942;BME280;49042;47.318;19.874;2023-06-19T03:06:20;100398.97;;;12.61;100.00
62942;BME280;49042;47.318;19.874;2023-06-19T03:09:22;100401.56;;;12.21;100.00
62942;BME280;49042;47.318;19.874;2023-06-19T03:12:24;100403.41;;;12.27;100.00
62942;BME280;49042;47.318;19.874;2023-06-19T03:15:25;100400.97;;;12.33;100.00
62942;BME280;49042;47.318;19.874;2023-06-19T03:18:27;100405.63;;;12.47;100.00
62942;BME280;49042;47.318;19.874;2023-06-19T03:21:29;100408.12;;;12.42;100.00
62942;BME280;49042;47.318;19.874;2023-06-19T03:24:30;100405.06;;;12.62;100.00
62942;BME280;49042;47.318;19.874;2023-06-19T03:27:32;100398.75;;;12.50;100.00
62942;BME280;49042;47.318;19.874;2023-06-19T03:30:34;100404.34;;;12.68;100.00
62942;BME280;49042;47.318;19.874;2023-06-19T03:33:36;100405.81;;;12.56;100.00
62942;BME280;49042;47.318;19.874;2023-06-19T03:36:37;100404.53;;;12.77;100.00
62942;BME280;49042;47.318;19.874;2023-06-19T03:39:40;100402.97;;;12.87;100.00
62942;BME280;49042;47.318;19.874;2023-06-19T03:42:41;100401.84;;;13.17;100.00
62942;BME280;49042;47.318;19.874;2023-06-19T03:45:43;100395.31;;;13.43;100.00
62942;BME280;49042;47.318;19.874;2023-06-19T03:48:45;100389.13;;;13.86;100.00
62942;BME280;49042;47.318;19.874;2023-06-19T03:51:47;100393.91;;;14.12;100.00
62942;BME280;49042;47.318;19.874;2023-06-19T03:54:48;100399.16;;;13.61;100.00
62942;BME280;49042;47.318;19.874;2023-06-19T03:57:51;100396.41;;;13.53;100.00
62942;BME280;49042;47.318;19.874;2023-06-19T04:00:54;100395.47;;;13.49;100.00
62942;BME280;49042;47.318;19.874;2023-06-19T04:03:55;100398.47;;;13.72;100.00
62942;BME280;49042;47.318;19.874;2023-06-19T04:06:57;100400.34;;;13.77;100.00
62942;BME280;49042;47.318;19.874;2023-06-19T04:10:00;100412.94;;;13.99;100.00
62942;BME280;49042;47.318;19.874;2023-06-19T04:13:02;100408.75;;;14.12;100.00
62942;BME280;49042;47.318;19.874;2023-06-19T04:16:04;100402.75;;;14.21;100.00
62942;BME280;49042;47.318;19.874;2023-06-19T04:19:05;100415.12;;;14.92;100.00
62942;BME280;49042;47.318;19.874;2023-06-19T04:22:07;100411.56;;;14.88;100.00
62942;BME280;49042;47.318;19.874;2023-06-19T04:25:09;100419.28;;;14.76;100.00
62942;BME280;49042;47.318;19.874;2023-06-19T04:28:14;100416.44;;;14.59;100.00
62942;BME280;49042;47.318;19.874;2023-06-19T04:31:16;100419.87;;;14.56;100.00
62942;BME280;49042;47.318;19.874;2023-06-19T04:34:19;100418.25;;;14.63;100.00
62942;BME280;49042;47.318;19.874;2023-06-19T04:37:22;100425.75;;;15.00;100.00
62942;BME280;49042;47.318;19.874;2023-06-19T04:40:24;100421.47;;;15.10;100.00
62942;BME280;49042;47.318;19.874;2023-06-19T04:43:27;100432.22;;;15.30;100.00
62942;BME280;49042;47.318;19.874;2023-06-19T04:46:29;100426.25;;;15.44;100.00
62942;BME280;49042;47.318;19.874;2023-06-19T04:49:30;100425.69;;;15.78;100.00
62942;BME280;49042;47.318;19.874;2023-06-19T04:52:32;100429.59;;;16.26;100.00
62942;BME280;49042;47.318;19.874;2023-06-19T04:55:34;100428.91;;;16.54;100.00
62942;BME280;49042;47.318;19.874;2023-06-19T04:58:36;100437.75;;;16.61;100.00
62942;BME280;49042;47.318;19.874;2023-06-19T05:01:40;100426.53;;;17.02;100.00
62942;BME280;49042;47.318;19.874;2023-06-19T05:04:42;100427.41;;;17.03;100.00
62942;BME280;49042;47.318;19.874;2023-06-19T05:07:45;100431.91;;;17.36;100.00
62942;BME280;49042;47.318;19.874;2023-06-19T05:10:47;100438.13;;;17.60;100.00
62942;BME280;49042;47.318;19.874;2023-06-19T05:13:48;100437.97;;;17.12;100.00
62942;BME280;49042;47.318;19.874;2023-06-19T05:16:50;100437.91;;;16.95;100.00
62942;BME280;49042;47.318;19.874;2023-06-19T05:19:52;100438.94;;;17.29;100.00
62942;BME280;49042;47.318;19.874;2023-06-19T05:22:53;100442.31;;;16.99;100.00
62942;BME280;49042;47.318;19.874;2023-06-19T05:25:55;100444.13;;;17.18;100.00
62942;BME280;49042;47.318;19.874;2023-06-19T05:28:57;100443.25;;;17.12;100.00
62942;BME280;49042;47.318;19.874;2023-06-19T05:31:58;100441.66;;;17.77;100.00
62942;BME280;49042;47.318;19.874;2023-06-19T05:35:00;100441.69;;;17.81;100.00
62942;BME280;49042;47.318;19.874;2023-06-19T05:38:02;100450.47;;;17.86;100.00
62942;BME280;49042;47.318;19.874;2023-06-19T05:41:04;100442.56;;;18.16;100.00
62942;BME280;49042;47.318;19.874;2023-06-19T05:44:06;100451.34;;;18.21;100.00
62942;BME280;49042;47.318;19.874;2023-06-19T05:47:07;100460.19;;;18.29;100.00
62942;BME280;49042;47.318;19.874;2023-06-19T05:50:09;100460.13;;;18.56;100.00
62942;BME280;49042;47.318;19.874;2023-06-19T05:53:11;100457.53;;;18.44;100.00
62942;BME280;49042;47.318;19.874;2023-06-19T05:56:16;100460.16;;;18.09;100.00
62942;BME280;49042;47.318;19.874;2023-06-19T05:59:18;100459.28;;;18.41;100.00
62942;BME280;49042;47.318;19.874;2023-06-19T06:02:20;100459.22;;;18.79;100.00
62942;BME280;49042;47.318;19.874;2023-06-19T06:05:21;100472.38;;;18.97;100.00
62942;BME280;49042;47.318;19.874;2023-06-19T06:08:23;100466.12;;;19.24;100.00
62942;BME280;49042;47.318;19.874;2023-06-19T06:11:25;100465.22;;;19.32;100.00
62942;BME280;49042;47.318;19.874;2023-06-19T06:14:27;100467.75;;;19.49;100.00
62942;BME280;49042;47.318;19.874;2023-06-19T06:17:29;100473.91;;;19.51;100.00
62942;BME280;49042;47.318;19.874;2023-06-19T06:20:31;100476.56;;;19.53;100.00
62942;BME280;49042;47.318;19.874;2023-06-19T06:23:33;100474.84;;;19.41;100.00
62942;BME280;49042;47.318;19.874;2023-06-19T06:26:34;100478.66;;;20.28;100.00
62942;BME280;49042;47.318;19.874;2023-06-19T06:29:37;100469.75;;;20.42;100.00
62942;BME280;49042;47.318;19.874;2023-06-19T06:32:38;100476.78;;;20.44;100.00
62942;BME280;49042;47.318;19.874;2023-06-19T06:35:40;100474.56;;;19.86;100.00
62942;BME280;49042;47.318;19.874;2023-06-19T06:38:42;100476.69;;;20.52;100.00
62942;BME280;49042;47.318;19.874;2023-06-19T06:41:44;100476.41;;;20.79;100.00
62942;BME280;49042;47.318;19.874;2023-06-19T06:44:45;100471.28;;;21.39;100.00
62942;BME280;49042;47.318;19.874;2023-06-19T06:47:47;100472.69;;;20.96;100.00
62942;BME280;49042;47.318;19.874;2023-06-19T06:50:49;100462.97;;;20.96;100.00
62942;BME280;49042;47.318;19.874;2023-06-19T06:53:52;100471.44;;;21.30;100.00
62942;BME280;49042;47.318;19.874;2023-06-19T06:56:53;100468.81;;;21.27;100.00
62942;BME280;49042;47.318;19.874;2023-06-19T06:59:59;100475.38;;;21.64;100.00
62942;BME280;49042;47.318;19.874;2023-06-19T07:03:00;100469.00;;;21.75;100.00
62942;BME280;49042;47.318;19.874;2023-06-19T07:06:02;100468.31;;;22.22;100.00
62942;BME280;49042;47.318;19.874;2023-06-19T07:09:04;100468.59;;;22.55;100.00
62942;BME280;49042;47.318;19.874;2023-06-19T07:12:06;100484.34;;;23.13;100.00
62942;BME280;49042;47.318;19.874;2023-06-19T07:15:08;100476.78;;;23.35;100.00
62942;BME280;49042;47.318;19.874;2023-06-19T07:18:10;100481.53;;;23.62;100.00
62942;BME280;49042;47.318;19.874;2023-06-19T07:21:14;100479.59;;;23.27;100.00
62942;BME280;49042;47.318;19.874;2023-06-19T07:24:16;100476.44;;;23.09;100.00
62942;BME280;49042;47.318;19.874;2023-06-19T07:27:17;100482.06;;;23.37;100.00
62942;BME280;49042;47.318;19.874;2023-06-19T07:30:19;100477.94;;;22.78;100.00
62942;BME280;49042;47.318;19.874;2023-06-19T07:33:22;100482.50;;;23.59;97.89
62942;BME280;49042;47.318;19.874;2023-06-19T07:36:23;100486.84;;;23.63;97.01
62942;BME280;49042;47.318;19.874;2023-06-19T07:39:25;100481.75;;;23.91;92.80
62942;BME280;49042;47.318;19.874;2023-06-19T07:42:27;100477.34;;;23.90;91.57
62942;BME280;49042;47.318;19.874;2023-06-19T07:45:28;100476.00;;;23.71;96.54
62942;BME280;49042;47.318;19.874;2023-06-19T07:48:30;100474.66;;;23.91;92.42
62942;BME280;49042;47.318;19.874;2023-06-19T07:51:32;100471.06;;;23.92;91.88
62942;BME280;49042;47.318;19.874;2023-06-19T07:54:34;100474.53;;;23.58;100.00
62942;BME280;49042;47.318;19.874;2023-06-19T07:57:36;100471.47;;;23.75;98.28
62942;BME280;49042;47.318;19.874;2023-06-19T08:00:38;100479.09;;;23.91;92.14
62942;BME280;49042;47.318;19.874;2023-06-19T08:03:39;100473.47;;;24.38;90.03
62942;BME280;49042;47.318;19.874;2023-06-19T08:06:41;100469.12;;;24.69;82.59
62942;BME280;49042;47.318;19.874;2023-06-19T08:09:43;100470.91;;;24.35;89.57
62942;BME280;49042;47.318;19.874;2023-06-19T08:12:45;100467.97;;;24.78;87.48
62942;BME280;49042;47.318;19.874;2023-06-19T08:15:46;100472.53;;;24.75;85.01
62942;BME280;49042;47.318;19.874;2023-06-19T08:18:48;100469.25;;;25.27;78.44
62942;BME280;49042;47.318;19.874;2023-06-19T08:21:50;100464.19;;;25.19;86.54
62942;BME280;49042;47.318;19.874;2023-06-19T08:24:51;100465.28;;;25.70;78.67
62942;BME280;49042;47.318;19.874;2023-06-19T08:27:53;100462.41;;;26.05;75.26
62942;BME280;49042;47.318;19.874;2023-06-19T08:30:55;100467.72;;;26.83;71.08
62942;BME280;49042;47.318;19.874;2023-06-19T08:33:57;100471.09;;;27.82;61.25
62942;BME280;49042;47.318;19.874;2023-06-19T08:36:58;100458.97;;;30.30;51.30
62942;BME280;49042;47.318;19.874;2023-06-19T08:40:00;100462.62;;;32.55;44.32
62942;BME280;49042;47.318;19.874;2023-06-19T08:43:02;100463.53;;;33.00;40.15
62942;BME280;49042;47.318;19.874;2023-06-19T08:46:11;100467.97;;;34.78;35.27
62942;BME280;49042;47.318;19.874;2023-06-19T08:49:13;100471.03;;;34.21;35.66
62942;BME280;49042;47.318;19.874;2023-06-19T08:52:15;100468.28;;;35.50;34.46
62942;BME280;49042;47.318;19.874;2023-06-19T08:55:16;100464.97;;;38.53;28.25
62942;BME280;49042;47.318;19.874;2023-06-19T08:58:22;100469.72;;;36.63;31.91
62942;BME280;49042;47.318;19.874;2023-06-19T09:01:25;100462.25;;;37.23;29.55
62942;BME280;49042;47.318;19.874;2023-06-19T09:04:28;100467.09;;;38.81;26.14
62942;BME280;49042;47.318;19.874;2023-06-19T09:07:32;100469.62;;;41.29;23.90
62942;BME280;49042;47.318;19.874;2023-06-19T09:10:34;100465.66;;;39.18;23.25
62942;BME280;49042;47.318;19.874;2023-06-19T09:13:35;100474.78;;;43.19;20.20
62942;BME280;49042;47.318;19.874;2023-06-19T09:16:41;100469.00;;;42.17;20.07
62942;BME280;49042;47.318;19.874;2023-06-19T09:19:54;100475.69;;;42.49;18.79
62942;BME280;49042;47.318;19.874;2023-06-19T09:22:59;100468.06;;;41.81;17.65
62942;BME280;49042;47.318;19.874;2023-06-19T09:26:02;100470.34;;;43.35;16.63
62942;BME280;49042;47.318;19.874;2023-06-19T09:29:13;100471.63;;;42.00;17.24
62942;BME280;49042;47.318;19.874;2023-06-19T09:32:23;100470.87;;;41.53;19.57
62942;BME280;49042;47.318;19.874;2023-06-19T09:35:25;100474.31;;;45.61;17.66
62942;BME280;49042;47.318;19.874;2023-06-19T09:38:29;100476.31;;;47.04;14.95
62942;BME280;49042;47.318;19.874;2023-06-19T09:41:31;100468.59;;;41.85;17.83
62942;BME280;49042;47.318;19.874;2023-06-19T09:44:39;100473.25;;;42.73;17.48
62942;BME280;49042;47.318;19.874;2023-06-19T09:47:47;100465.28;;;38.92;20.03
62942;BME280;49042;47.318;19.874;2023-06-19T09:50:54;100462.94;;;37.81;20.90
62942;BME280;49042;47.318;19.874;2023-06-19T09:53:58;100471.09;;;41.60;20.20
62942;BME280;49042;47.318;19.874;2023-06-19T09:57:02;100468.44;;;41.31;18.15
62942;BME280;49042;47.318;19.874;2023-06-19T10:00:06;100466.63;;;39.17;19.75
62942;BME280;49042;47.318;19.874;2023-06-19T10:03:34;100471.03;;;35.62;23.22
62942;BME280;49042;47.318;19.874;2023-06-19T10:06:45;100466.47;;;35.62;25.33
62942;BME280;49042;47.318;19.874;2023-06-19T10:10:07;100465.84;;;34.30;24.54
62942;BME280;49042;47.318;19.874;2023-06-19T10:13:15;100459.84;;;33.71;24.98
62942;BME280;49042;47.318;19.874;2023-06-19T10:16:21;100458.13;;;33.70;26.01
62942;BME280;49042;47.318;19.874;2023-06-19T10:19:23;100453.47;;;31.98;31.55
62942;BME280;49042;47.318;19.874;2023-06-19T10:22:30;100452.59;;;31.34;32.26
62942;BME280;49042;47.318;19.874;2023-06-19T10:25:34;100445.78;;;30.94;30.31
62942;BME280;49042;47.318;19.874;2023-06-19T10:28:36;100434.47;;;30.71;33.04
62942;BME280;49042;47.318;19.874;2023-06-19T10:31:38;100426.47;;;30.69;32.71
62942;BME280;49042;47.318;19.874;2023-06-19T10:34:45;100434.88;;;29.18;35.58
62942;BME280;49042;47.318;19.874;2023-06-19T10:37:48;100430.03;;;28.86;34.25
62942;BME280;49042;47.318;19.874;2023-06-19T10:40:50;100430.31;;;29.38;33.41
62942;BME280;49042;47.318;19.874;2023-06-19T10:46:58;100424.28;;;29.53;34.52
62942;BME280;49042;47.318;19.874;2023-06-19T10:50:01;100415.81;;;29.43;36.86
62942;BME280;49042;47.318;19.874;2023-06-19T10:53:04;100414.81;;;29.26;33.77
62942;BME280;49042;47.318;19.874;2023-06-19T10:56:05;100415.44;;;29.50;33.45
62942;BME280;49042;47.318;19.874;2023-06-19T10:59:11;100411.19;;;29.64;34.72
62942;BME280;49042;47.318;19.874;2023-06-19T11:02:13;100409.31;;;29.29;38.02
62942;BME280;49042;47.318;19.874;2023-06-19T11:05:15;100400.50;;;28.67;38.03
62942;BME280;49042;47.318;19.874;2023-06-19T11:08:23;100404.94;;;28.68;36.76
62942;BME280;49042;47.318;19.874;2023-06-19T11:11:38;100396.31;;;28.40;38.64
62942;BME280;49042;47.318;19.874;2023-06-19T11:14:40;100405.44;;;28.15;39.84
62942;BME280;49042;47.318;19.874;2023-06-19T11:17:43;100406.81;;;28.45;36.14
62942;BME280;49042;47.318;19.874;2023-06-19T11:20:52;100408.41;;;28.70;35.00
62942;BME280;49042;47.318;19.874;2023-06-19T11:23:57;100400.38;;;29.28;34.53
62942;BME280;49042;47.318;19.874;2023-06-19T11:26:59;100403.69;;;29.71;34.17
62942;BME280;49042;47.318;19.874;2023-06-19T11:30:01;100400.91;;;30.26;34.42
62942;BME280;49042;47.318;19.874;2023-06-19T11:33:19;100397.25;;;31.12;33.02
62942;BME280;49042;47.318;19.874;2023-06-19T11:36:24;100400.22;;;31.23;31.63
62942;BME280;49042;47.318;19.874;2023-06-19T11:39:27;100390.06;;;30.62;34.83
62942;BME280;49042;47.318;19.874;2023-06-19T11:42:29;100385.34;;;31.79;32.20
62942;BME280;49042;47.318;19.874;2023-06-19T11:45:31;100378.03;;;34.35;28.31
62942;BME280;49042;47.318;19.874;2023-06-19T11:48:36;100385.44;;;34.83;25.90
62942;BME280;49042;47.318;19.874;2023-06-19T11:51:39;100380.03;;;32.53;31.11
62942;BME280;49042;47.318;19.874;2023-06-19T11:54:40;100370.09;;;32.38;30.26
62942;BME280;49042;47.318;19.874;2023-06-19T11:57:42;100370.69;;;33.01;30.38
62942;BME280;49042;47.318;19.874;2023-06-19T12:00:45;100374.91;;;36.25;26.66
62942;BME280;49042;47.318;19.874;2023-06-19T12:03:46;100380.81;;;39.12;22.02
62942;BME280;49042;47.318;19.874;2023-06-19T12:06:48;100381.69;;;41.05;20.90
62942;BME280;49042;47.318;19.874;2023-06-19T12:09:50;100389.06;;;43.34;18.09
62942;BME280;49042;47.318;19.874;2023-06-19T12:12:53;100389.91;;;43.34;17.29
62942;BME280;49042;47.318;19.874;2023-06-19T12:15:55;100384.06;;;43.29;17.74
62942;BME280;49042;47.318;19.874;2023-06-19T12:18:56;100379.87;;;45.13;15.95
62942;BME280;49042;47.318;19.874;2023-06-19T12:21:58;100381.72;;;44.25;15.71
62942;BME280;49042;47.318;19.874;2023-06-19T12:25:01;100377.16;;;44.49;16.39
62942;BME280;49042;47.318;19.874;2023-06-19T12:28:03;100379.28;;;43.31;17.62
62942;BME280;49042;47.318;19.874;2023-06-19T12:31:09;100383.25;;;43.45;16.99
62942;BME280;49042;47.318;19.874;2023-06-19T12:34:11;100375.16;;;43.19;17.07
62942;BME280;49042;47.318;19.874;2023-06-19T12:37:29;100365.09;;;41.62;18.50
62942;BME280;49042;47.318;19.874;2023-06-19T12:40:31;100360.31;;;38.97;20.67
62942;BME280;49042;47.318;19.874;2023-06-19T12:43:33;100359.66;;;36.92;25.03
62942;BME280;49042;47.318;19.874;2023-06-19T12:46:34;100369.47;;;39.56;21.28
62942;BME280;49042;47.318;19.874;2023-06-19T12:49:37;100355.56;;;41.11;19.25
62942;BME280;49042;47.318;19.874;2023-06-19T12:52:38;100359.88;;;43.33;17.12
62942;BME280;49042;47.318;19.874;2023-06-19T12:55:40;100364.53;;;43.66;16.82
62942;BME280;49042;47.318;19.874;2023-06-19T12:59:00;100350.81;;;44.32;15.62
62942;BME280;49042;47.318;19.874;2023-06-19T13:02:02;100350.62;;;43.59;16.77
62942;BME280;49042;47.318;19.874;2023-06-19T13:05:06;100349.88;;;45.42;14.30
62942;BME280;49042;47.318;19.874;2023-06-19T13:08:08;100348.06;;;45.88;14.78
62942;BME280;49042;47.318;19.874;2023-06-19T13:11:09;100341.03;;;42.44;17.09
62942;BME280;49042;47.318;19.874;2023-06-19T13:14:11;100337.88;;;44.40;15.92
62942;BME280;49042;47.318;19.874;2023-06-19T13:17:13;100337.62;;;44.82;15.99
62942;BME280;49042;47.318;19.874;2023-06-19T13:20:15;100342.22;;;43.19;17.05
62942;BME280;49042;47.318;19.874;2023-06-19T13:23:17;100331.44;;;45.04;15.55
62942;BME280;49042;47.318;19.874;2023-06-19T13:26:19;100333.41;;;46.71;14.29
62942;BME280;49042;47.318;19.874;2023-06-19T13:29:21;100326.47;;;43.46;15.93
62942;BME280;49042;47.318;19.874;2023-06-19T13:32:23;100328.56;;;46.05;15.64
62942;BME280;49042;47.318;19.874;2023-06-19T13:35:24;100326.25;;;46.39;15.01
62942;BME280;49042;47.318;19.874;2023-06-19T13:38:26;100327.22;;;45.55;15.43
62942;BME280;49042;47.318;19.874;2023-06-19T13:41:28;100324.22;;;44.56;14.95
62942;BME280;49042;47.318;19.874;2023-06-19T13:44:32;100318.47;;;42.07;17.03
62942;BME280;49042;47.318;19.874;2023-06-19T13:47:35;100318.00;;;44.22;16.46
62942;BME280;49042;47.318;19.874;2023-06-19T13:50:37;100316.13;;;43.73;16.71
62942;BME280;49042;47.318;19.874;2023-06-19T13:53:39;100319.47;;;43.18;17.47
62942;BME280;49042;47.318;19.874;2023-06-19T13:56:40;100318.09;;;43.14;16.65
62942;BME280;49042;47.318;19.874;2023-06-19T13:59:43;100317.28;;;39.79;20.43
62942;BME280;49042;47.318;19.874;2023-06-19T14:02:45;100309.97;;;36.45;25.04
62942;BME280;49042;47.318;19.874;2023-06-19T14:05:47;100314.34;;;37.68;23.81
62942;BME280;49042;47.318;19.874;2023-06-19T14:08:49;100320.50;;;36.50;23.93
62942;BME280;49042;47.318;19.874;2023-06-19T14:11:50;100310.97;;;36.32;24.28
62942;BME280;49042;47.318;19.874;2023-06-19T14:14:52;100308.50;;;36.06;25.15
62942;BME280;49042;47.318;19.874;2023-06-19T14:17:54;100310.34;;;32.15;28.79
62942;BME280;49042;47.318;19.874;2023-06-19T14:20:56;100305.50;;;31.15;31.26
62942;BME280;49042;47.318;19.874;2023-06-19T14:23:57;100311.50;;;30.55;32.85
62942;BME280;49042;47.318;19.874;2023-06-19T14:26:59;100307.16;;;30.18;32.52
62942;BME280;49042;47.318;19.874;2023-06-19T14:30:01;100300.94;;;31.00;31.37
62942;BME280;49042;47.318;19.874;2023-06-19T14:33:02;100293.81;;;30.51;34.17
62942;BME280;49042;47.318;19.874;2023-06-19T14:36:05;100291.03;;;29.66;34.12
62942;BME280;49042;47.318;19.874;2023-06-19T14:39:06;100289.69;;;29.75;34.76
62942;BME280;49042;47.318;19.874;2023-06-19T14:42:08;100297.28;;;29.31;35.86
62942;BME280;49042;47.318;19.874;2023-06-19T14:45:11;100294.28;;;29.55;36.48
62942;BME280;49042;47.318;19.874;2023-06-19T14:48:13;100289.16;;;29.50;35.30
62942;BME280;49042;47.318;19.874;2023-06-19T14:51:15;100293.56;;;29.51;36.40
62942;BME280;49042;47.318;19.874;2023-06-19T14:54:16;100290.91;;;28.96;37.38
62942;BME280;49042;47.318;19.874;2023-06-19T14:57:19;100285.44;;;29.35;37.59
62942;BME280;49042;47.318;19.874;2023-06-19T15:00:20;100289.00;;;29.54;37.25
62942;BME280;49042;47.318;19.874;2023-06-19T15:03:22;100279.41;;;29.66;36.85
62942;BME280;49042;47.318;19.874;2023-06-19T15:06:25;100278.56;;;30.17;35.83
62942;BME280;49042;47.318;19.874;2023-06-19T15:09:26;100279.09;;;30.24;35.15
62942;BME280;49042;47.318;19.874;2023-06-19T15:12:28;100278.38;;;29.86;35.78
62942;BME280;49042;47.318;19.874;2023-06-19T15:15:30;100276.84;;;29.82;36.01
62942;BME280;49042;47.318;19.874;2023-06-19T15:18:32;100280.84;;;29.73;36.42
62942;BME280;49042;47.318;19.874;2023-06-19T15:21:33;100286.38;;;29.52;36.45
62942;BME280;49042;47.318;19.874;2023-06-19T15:24:35;100286.88;;;30.12;35.84
62942;BME280;49042;47.318;19.874;2023-06-19T15:27:37;100285.31;;;30.08;36.40
62942;BME280;49042;47.318;19.874;2023-06-19T15:30:38;100273.47;;;29.95;35.02
62942;BME280;49042;47.318;19.874;2023-06-19T15:33:40;100275.78;;;29.67;35.75
62942;BME280;49042;47.318;19.874;2023-06-19T15:36:42;100277.81;;;29.97;36.84
62942;BME280;49042;47.318;19.874;2023-06-19T15:39:44;100276.34;;;29.20;36.61
62942;BME280;49042;47.318;19.874;2023-06-19T15:42:46;100274.63;;;29.00;38.76
62942;BME280;49042;47.318;19.874;2023-06-19T15:45:48;100268.38;;;29.18;38.53